Time;durP1;ratioP1;P1;durP2;ratioP2;P2;SDS_P1;SDS_P2;PMS_P1;PMS_P2;Temp;Humidity;BMP_temperature;BMP_pressure;BME280_temperature;BME280_humidity;BME280_pressure;Samples;Min_cycle;Max_cycle;Signal;HPM_P1;HPM_P2
2022/05/14 00:00:42;;;;;;;13.57;10.27;;;;;;;12.94;100.00;94383.69;5024756;28;20230;-70
2022/05/14 00:03:28;;;;;;;11.40;10.20;;;;;;;12.85;100.00;94387.25;5020780;28;20210;-71
2022/05/14 00:06:15;;;;;;;13.83;11.20;;;;;;;12.66;100.00;94380.94;5015629;28;20205;-71
2022/05/14 00:09:04;;;;;;;20.10;14.13;;;;;;;12.45;100.00;94382.34;5027179;28;20256;-71
2022/05/14 00:14:51;;;;;;;22.13;17.17;;;;;;;12.14;100.00;94373.03;5008985;28;20249;-71
2022/05/14 00:17:35;;;;;;;25.67;18.33;;;;;;;12.02;100.00;94372.91;5011088;28;20258;-70
2022/05/14 00:20:20;;;;;;;35.67;21.73;;;;;;;11.90;100.00;94368.47;4996631;28;20226;-70
2022/05/14 00:23:05;;;;;;;35.90;23.93;;;;;;;11.85;100.00;94369.50;5023191;28;20222;-70
2022/05/14 00:25:49;;;;;;;37.37;22.60;;;;;;;11.79;100.00;94369.06;5023160;28;20202;-70
2022/05/14 00:28:33;;;;;;;32.87;22.53;;;;;;;11.65;100.00;94369.47;5010016;28;20250;-70
2022/05/14 00:31:18;;;;;;;36.10;25.13;;;;;;;11.58;100.00;94366.78;5014185;28;21477;-70
2022/05/14 00:34:02;;;;;;;34.33;23.43;;;;;;;11.48;100.00;94372.34;5007361;28;20201;-70
2022/05/14 00:36:46;;;;;;;29.83;20.93;;;;;;;11.44;100.00;94369.25;4991676;28;20653;-70
2022/05/14 00:39:30;;;;;;;30.80;20.40;;;;;;;11.29;100.00;94366.72;5030601;28;20237;-70
2022/05/14 00:42:14;;;;;;;23.10;17.07;;;;;;;11.26;100.00;94362.28;5025009;28;20206;-70
2022/05/14 00:44:58;;;;;;;32.30;22.57;;;;;;;11.17;100.00;94355.31;5017750;28;20818;-70
2022/05/14 00:47:45;;;;;;;33.77;21.67;;;;;;;11.13;100.00;94365.47;5000910;28;20206;-70
2022/05/14 00:50:43;;;;;;;37.57;25.13;;;;;;;10.97;100.00;94358.66;5021545;28;20603;-70
2022/05/14 00:53:33;;;;;;;34.57;23.10;;;;;;;10.83;100.00;94356.22;5007109;28;20260;-70
2022/05/14 00:56:25;;;;;;;33.80;22.03;;;;;;;10.69;100.00;94366.34;5021109;28;20775;-70
2022/05/14 00:59:13;;;;;;;30.30;20.40;;;;;;;10.54;100.00;94358.91;5004165;28;20206;-70
2022/05/14 01:01:58;;;;;;;29.67;19.53;;;;;;;10.42;100.00;94357.94;5003529;28;20266;-70
2022/05/14 01:04:44;;;;;;;40.97;23.70;;;;;;;10.30;100.00;94356.25;5008493;28;20623;-71
2022/05/14 01:07:31;;;;;;;33.47;21.47;;;;;;;10.24;100.00;94358.56;5013764;28;20278;-69
2022/05/14 01:10:18;;;;;;;19.33;15.47;;;;;;;10.11;100.00;94349.19;5028391;28;20197;-70
2022/05/14 01:13:03;;;;;;;17.43;14.50;;;;;;;10.11;100.00;94337.25;5018431;28;20297;-70
2022/05/14 01:15:54;;;;;;;22.67;17.50;;;;;;;9.99;100.00;94337.00;5009859;28;20207;-70
2022/05/14 01:18:41;;;;;;;32.13;21.20;;;;;;;9.84;100.00;94339.97;4998272;28;20199;-70
2022/05/14 01:26:28;;;;;;;32.27;21.97;;;;;;;9.81;100.00;94360.75;5016122;28;20574;-70
2022/05/14 01:29:19;;;;;;;37.47;25.77;;;;;;;9.80;100.00;94356.47;4989214;28;20244;-70
2022/05/14 01:32:05;;;;;;;40.50;28.23;;;;;;;9.98;100.00;94357.91;5022249;28;20256;-70
2022/05/14 01:34:50;;;;;;;23.77;19.03;;;;;;;10.05;100.00;94348.69;5011910;28;20218;-70
2022/05/14 01:37:37;;;;;;;38.63;25.10;;;;;;;10.09;100.00;94343.41;5006527;28;20237;-70
2022/05/14 01:40:21;;;;;;;39.80;23.80;;;;;;;10.06;100.00;94338.94;4994884;28;20222;-70
2022/05/14 01:43:05;;;;;;;34.63;21.97;;;;;;;9.83;100.00;94338.50;5009127;28;20229;-70
2022/05/14 01:45:50;;;;;;;36.23;22.93;;;;;;;9.68;100.00;94338.69;5007488;28;20213;-70
2022/05/14 01:48:34;;;;;;;43.60;25.07;;;;;;;9.51;100.00;94347.06;5004531;28;20261;-70
2022/05/14 01:51:19;;;;;;;33.07;22.63;;;;;;;9.37;100.00;94343.13;5010727;28;20245;-69
2022/05/14 01:54:04;;;;;;;35.87;23.30;;;;;;;9.21;100.00;94342.50;5008518;28;20248;-70
2022/05/14 01:56:49;;;;;;;26.07;20.10;;;;;;;9.28;100.00;94331.25;5003986;28;20194;-69
2022/05/14 01:59:33;;;;;;;31.03;20.43;;;;;;;9.24;100.00;94335.78;5012727;28;20210;-70
2022/05/14 02:02:18;;;;;;;29.37;20.07;;;;;;;9.05;100.00;94327.94;5002043;28;20198;-69
2022/05/14 02:05:02;;;;;;;39.23;24.30;;;;;;;8.90;100.00;94325.25;5012653;28;20286;-69
2022/05/14 02:07:49;;;;;;;48.73;27.00;;;;;;;8.92;100.00;94328.22;5018237;28;20203;-71
2022/05/14 02:10:34;;;;;;;49.20;29.50;;;;;;;8.79;100.00;94326.47;5016450;28;20630;-69
2022/05/14 02:13:18;;;;;;;36.77;25.37;;;;;;;8.71;100.00;94336.22;5014545;28;20205;-68
2022/05/14 02:16:03;;;;;;;45.57;27.60;;;;;;;8.55;100.00;94334.84;5011292;28;20295;-69
2022/05/14 02:18:51;;;;;;;32.10;21.70;;;;;;;8.50;100.00;94326.13;4998442;28;20725;-69
2022/05/14 02:21:36;;;;;;;35.47;22.90;;;;;;;8.43;100.00;94329.72;5015515;28;20741;-69
2022/05/14 02:24:21;;;;;;;37.17;24.13;;;;;;;8.29;100.00;94328.47;5020149;28;20409;-69
2022/05/14 02:27:05;;;;;;;36.10;22.70;;;;;;;8.21;100.00;94327.03;5010845;28;20605;-68
2022/05/14 02:29:53;;;;;;;36.30;22.37;;;;;;;8.11;100.00;94326.91;5030004;28;20211;-67
2022/05/14 02:32:38;;;;;;;40.70;24.70;;;;;;;8.05;100.00;94324.31;5021808;28;20596;-69
2022/05/14 02:35:22;;;;;;;36.63;23.70;;;;;;;8.02;100.00;94324.72;5013173;28;20261;-68
2022/05/14 02:38:08;;;;;;;56.80;30.07;;;;;;;8.06;100.00;94325.06;5016708;28;20210;-68
2022/05/14 02:40:53;;;;;;;42.93;25.90;;;;;;;8.18;100.00;94331.69;5025241;28;20303;-68
2022/05/14 02:43:37;;;;;;;56.27;31.90;;;;;;;8.28;100.00;94332.56;5023613;28;20206;-69
2022/05/14 02:46:22;;;;;;;48.90;31.77;;;;;;;8.42;100.00;94333.81;5030342;28;20264;-68
2022/05/14 02:49:06;;;;;;;31.23;21.77;;;;;;;8.51;100.00;94324.84;5008469;28;20284;-69
2022/05/14 02:51:51;;;;;;;34.23;22.17;;;;;;;8.53;100.00;94322.19;5024806;28;20863;-68
2022/05/14 02:54:35;;;;;;;34.13;24.37;;;;;;;8.55;100.00;94318.09;5002845;28;20213;-69
2022/05/14 02:57:21;;;;;;;50.37;28.60;;;;;;;8.60;100.00;94331.09;5017648;28;20206;-68
2022/05/14 03:00:10;;;;;;;45.90;27.57;;;;;;;8.64;100.00;94331.44;5032461;28;20308;-69
2022/05/14 03:02:55;;;;;;;42.57;28.43;;;;;;;8.71;100.00;94336.22;5007625;28;20695;-69
2022/05/14 03:05:39;;;;;;;42.67;26.27;;;;;;;8.71;100.00;94334.16;5022865;28;20237;-69
2022/05/14 03:08:24;;;;;;;39.23;24.67;;;;;;;8.82;100.00;94330.94;5032634;28;20366;-69
2022/05/14 03:11:08;;;;;;;38.77;26.93;;;;;;;8.82;100.00;94336.53;4998709;28;20214;-70
2022/05/14 03:13:54;;;;;;;42.43;26.73;;;;;;;8.69;100.00;94328.44;5023415;28;20205;-70
2022/05/14 03:16:40;;;;;;;43.80;29.70;;;;;;;8.72;100.00;94329.31;5017530;28;20214;-70
2022/05/14 03:19:24;;;;;;;50.83;29.87;;;;;;;8.79;100.00;94326.47;5013242;28;20206;-70
2022/05/14 03:22:08;;;;;;;42.40;26.50;;;;;;;8.72;100.00;94320.94;5028253;28;20201;-70
2022/05/14 03:24:52;;;;;;;41.20;24.37;;;;;;;8.65;100.00;94316.16;5016371;28;20217;-70
2022/05/14 03:27:37;;;;;;;41.13;25.30;;;;;;;8.82;100.00;94328.13;5008743;28;20302;-70
2022/05/14 03:30:21;;;;;;;32.63;22.97;;;;;;;8.76;100.00;94329.69;5010479;28;20521;-70
2022/05/14 03:33:05;;;;;;;41.93;26.40;;;;;;;8.74;100.00;94329.50;5004441;28;20518;-70
2022/05/14 03:35:49;;;;;;;49.73;27.83;;;;;;;8.70;100.00;94332.69;5003113;28;20211;-70
2022/05/14 03:38:33;;;;;;;43.63;27.50;;;;;;;8.72;100.00;94337.69;5015718;28;20609;-70
2022/05/14 03:41:18;;;;;;;40.00;27.43;;;;;;;8.87;100.00;94340.38;5002378;28;20765;-70
2022/05/14 03:44:02;;;;;;;37.37;25.57;;;;;;;8.90;100.00;94347.63;5006727;28;20246;-71
2022/05/14 03:46:48;;;;;;;41.47;27.20;;;;;;;8.98;100.00;94342.72;5031199;28;20197;-70
2022/05/14 03:49:32;;;;;;;40.30;28.13;;;;;;;9.04;100.00;94346.00;5016074;28;20316;-69
2022/05/14 03:52:18;;;;;;;39.83;26.27;;;;;;;9.19;100.00;94350.75;5012003;28;20602;-70
2022/05/14 03:55:03;;;;;;;35.57;25.23;;;;;;;9.27;100.00;94357.72;4992857;28;20227;-70
2022/05/14 03:57:48;;;;;;;35.10;24.63;;;;;;;9.40;100.00;94355.94;5009496;28;20734;-70
2022/05/14 04:00:32;;;;;;;32.97;24.90;;;;;;;9.58;100.00;94365.81;4998416;28;20799;-70
2022/05/14 04:03:17;;;;;;;38.93;25.43;;;;;;;9.56;100.00;94357.28;5007003;28;20234;-71
2022/05/14 04:06:04;;;;;;;36.40;25.57;;;;;;;9.62;100.00;94357.78;5030027;28;20257;-70
2022/05/14 04:08:48;;;;;;;32.47;23.00;;;;;;;9.69;100.00;94356.94;5008937;28;20725;-70
2022/05/14 04:11:32;;;;;;;32.70;24.33;;;;;;;9.80;100.00;94355.72;4998324;28;20205;-71
2022/05/14 04:14:17;;;;;;;33.00;22.93;;;;;;;9.97;100.00;94370.44;5026642;28;20206;-71
2022/05/14 04:17:01;;;;;;;30.43;22.47;;;;;;;10.08;100.00;94367.13;5004116;28;20414;-71
2022/05/14 04:19:46;;;;;;;24.83;21.00;;;;;;;10.15;100.00;94360.69;5011547;28;20691;-70
2022/05/14 04:22:31;;;;;;;23.40;19.80;;;;;;;10.22;100.00;94369.59;5011687;28;20337;-71
2022/05/14 04:25:15;;;;;;;25.07;18.33;;;;;;;10.24;100.00;94364.19;5012773;28;20214;-71
2022/05/14 04:28:00;;;;;;;25.17;19.80;;;;;;;10.29;100.00;94365.97;5016260;28;20198;-71
2022/05/14 04:30:45;;;;;;;23.63;18.43;;;;;;;10.41;100.00;94372.53;5001743;28;20190;-71
2022/05/14 04:33:29;;;;;;;22.20;19.80;;;;;;;10.52;100.00;94366.41;5010330;28;20202;-70
2022/05/14 04:36:15;;;;;;;23.13;19.07;;;;;;;10.72;100.00;94370.78;5015733;28;20201;-70
2022/05/14 04:38:59;;;;;;;21.43;18.67;;;;;;;10.76;100.00;94371.09;4998960;28;20206;-70
2022/05/14 04:41:44;;;;;;;20.67;17.93;;;;;;;10.75;100.00;94369.59;5026848;28;20621;-71
2022/05/14 04:44:29;;;;;;;24.03;18.40;;;;;;;10.86;100.00;94360.66;5005527;28;20215;-70
2022/05/14 04:47:16;;;;;;;17.30;15.50;;;;;;;11.02;100.00;94363.97;4998371;28;20202;-71
2022/05/14 04:50:02;;;;;;;23.10;17.83;;;;;;;11.25;100.00;94364.34;4995913;28;20199;-70
2022/05/14 04:52:46;;;;;;;20.27;16.70;;;;;;;11.09;100.00;94356.78;5006291;28;20202;-70
2022/05/14 04:55:31;;;;;;;18.57;15.90;;;;;;;10.97;100.00;94358.66;4995012;28;20206;-70
2022/05/14 04:58:16;;;;;;;19.07;15.90;;;;;;;10.97;100.00;94372.66;5014057;28;20619;-70
2022/05/14 05:01:00;;;;;;;30.23;19.73;;;;;;;10.93;100.00;94371.00;5014828;28;20548;-70
2022/05/14 05:03:45;;;;;;;54.73;23.53;;;;;;;11.17;100.00;94371.41;5007218;28;20203;-70
2022/05/14 05:06:29;;;;;;;88.20;28.87;;;;;;;11.61;100.00;94380.38;4986926;28;20300;-70
2022/05/14 05:09:14;;;;;;;62.73;24.97;;;;;;;11.75;100.00;94372.28;5018903;28;20338;-71
2022/05/14 05:11:59;;;;;;;49.77;24.77;;;;;;;11.98;100.00;94383.09;5020343;28;20570;-71
2022/05/14 05:14:43;;;;;;;36.30;21.20;;;;;;;11.94;100.00;94391.22;5028404;28;20593;-70
2022/05/14 05:17:27;;;;;;;23.90;18.97;;;;;;;11.94;100.00;94380.00;5027664;28;20257;-71
2022/05/14 05:20:12;;;;;;;18.70;15.97;;;;;;;12.14;100.00;94384.28;5029239;28;20298;-70
2022/05/14 05:22:56;;;;;;;16.63;14.90;;;;;;;12.33;100.00;94375.84;5001168;28;20329;-70
2022/05/14 05:25:41;;;;;;;15.10;13.00;;;;;;;12.41;100.00;94382.03;5009774;28;20195;-70
2022/05/14 05:28:27;;;;;;;13.80;12.40;;;;;;;12.54;100.00;94381.56;5027192;28;20268;-70
2022/05/14 05:31:12;;;;;;;14.37;12.13;;;;;;;12.74;100.00;94381.53;5014538;28;20190;-70
2022/05/14 05:33:56;;;;;;;13.63;11.50;;;;;;;12.81;100.00;94380.63;5017841;28;20214;-71
2022/05/14 05:36:40;;;;;;;15.00;12.43;;;;;;;12.84;100.00;94390.66;5008382;28;20553;-71
2022/05/14 05:39:24;;;;;;;14.80;11.37;;;;;;;13.16;100.00;94387.31;5032315;28;20198;-71
2022/05/14 05:42:08;;;;;;;11.70;9.83;;;;;;;13.55;100.00;94392.78;5006923;28;20242;-71
2022/05/14 05:44:55;;;;;;;11.87;10.67;;;;;;;13.61;100.00;94396.00;5027151;28;20697;-71
2022/05/14 05:47:39;;;;;;;11.20;9.47;;;;;;;14.19;100.00;94399.91;5030369;28;20324;-71
2022/05/14 05:50:24;;;;;;;14.53;10.20;;;;;;;13.98;100.00;94402.75;5001418;28;20242;-71
2022/05/14 05:53:09;;;;;;;11.33;9.40;;;;;;;14.35;100.00;94402.31;5019375;28;20257;-71
2022/05/14 05:58:55;;;;;;;14.20;9.67;;;;;;;14.46;100.00;94393.91;5027824;28;20205;-71
2022/05/14 06:01:40;;;;;;;11.13;8.80;;;;;;;14.86;100.00;94398.59;5006964;28;20230;-71
2022/05/14 06:04:25;;;;;;;13.50;8.70;;;;;;;15.04;100.00;94395.44;5017928;28;20659;-71
2022/05/14 06:07:09;;;;;;;11.43;8.57;;;;;;;14.88;100.00;94404.34;5018614;28;20198;-71
2022/05/14 06:09:53;;;;;;;9.27;8.37;;;;;;;15.21;100.00;94400.72;5030677;28;20269;-72
2022/05/14 06:12:38;;;;;;;10.17;7.87;;;;;;;15.68;100.00;94410.69;5027747;28;20249;-71
2022/05/14 06:15:22;;;;;;;9.60;7.20;;;;;;;15.80;100.00;94404.31;5007319;28;20226;-71
2022/05/14 06:18:07;;;;;;;9.23;8.27;;;;;;;15.92;100.00;94417.09;5018089;28;20225;-71
2022/05/14 06:20:51;;;;;;;9.30;7.03;;;;;;;15.79;100.00;94414.88;5023578;28;20273;-71
2022/05/14 06:23:35;;;;;;;9.87;6.67;;;;;;;15.81;100.00;94414.25;5005321;28;20203;-71
2022/05/14 06:26:19;;;;;;;10.80;6.50;;;;;;;16.03;100.00;94409.94;5021886;28;20711;-71
2022/05/14 06:29:05;;;;;;;8.63;6.50;;;;;;;16.01;100.00;94412.63;5032766;28;20562;-71
2022/05/14 06:31:49;;;;;;;6.73;5.80;;;;;;;16.09;100.00;94411.03;5021772;28;20737;-71
2022/05/14 06:34:33;;;;;;;6.97;5.73;;;;;;;15.75;97.18;94414.63;5023541;28;20210;-71
2022/05/14 06:37:17;;;;;;;7.83;6.10;;;;;;;16.32;98.62;94404.56;5009856;28;20695;-70
2022/05/14 06:40:03;;;;;;;11.73;6.50;;;;;;;16.39;98.46;94420.53;5032440;28;20218;-70
2022/05/14 06:42:48;;;;;;;9.87;6.80;;;;;;;16.98;96.47;94418.22;5025228;28;20233;-71
2022/05/14 06:45:32;;;;;;;12.20;7.10;;;;;;;17.37;94.28;94423.88;5000196;28;20768;-70
2022/05/14 06:48:16;;;;;;;6.90;6.20;;;;;;;17.54;91.61;94425.47;5023931;28;20198;-70
2022/05/14 06:51:16;;;;;;;9.67;6.03;;;;;;;17.81;89.13;94424.81;5014525;28;20244;-71
2022/05/14 06:54:08;;;;;;;7.73;6.00;;;;;;;17.76;90.12;94418.22;5020644;28;20679;-71
2022/05/14 06:56:52;;;;;;;8.18;6.03;;;;;;;17.91;88.03;94417.56;5019834;28;20249;-71
2022/05/14 06:59:37;;;;;;;10.23;6.00;;;;;;;18.64;82.17;94426.94;5006887;28;20635;-71
2022/05/14 07:02:21;;;;;;;6.88;6.15;;;;;;;18.37;80.12;94424.16;5028076;28;20282;-71
2022/05/14 07:08:11;;;;;;;7.80;5.80;;;;;;;18.37;81.59;94416.38;5014889;28;20348;-71
2022/05/14 07:10:56;;;;;;;9.13;5.57;;;;;;;18.30;79.08;94416.69;5024350;28;20253;-71
2022/05/14 07:13:40;;;;;;;6.47;5.13;;;;;;;18.49;78.83;94404.91;5011719;28;20210;-71
2022/05/14 07:16:24;;;;;;;6.78;4.47;;;;;;;18.99;68.42;94410.22;5007608;28;20678;-70
2022/05/14 07:19:09;;;;;;;6.88;4.22;;;;;;;18.44;70.30;94400.41;5011548;28;20295;-71
2022/05/14 07:21:55;;;;;;;8.65;4.28;;;;;;;18.55;71.57;94405.97;5017526;28;20225;-71
2022/05/14 07:24:40;;;;;;;9.20;4.72;;;;;;;18.62;71.14;94409.84;5016172;28;20707;-71
2022/05/14 07:27:24;;;;;;;4.60;3.92;;;;;;;18.77;71.55;94411.25;5000440;28;20206;-71
2022/05/14 07:30:10;;;;;;;6.03;3.80;;;;;;;19.27;70.77;94410.09;5022267;28;20245;-71
2022/05/14 07:32:54;;;;;;;4.95;3.13;;;;;;;19.72;64.91;94416.47;5023179;28;20218;-71
2022/05/14 07:35:41;;;;;;;10.27;3.38;;;;;;;19.67;59.55;94417.66;5022363;28;20674;-71
2022/05/14 07:38:26;;;;;;;8.32;3.88;;;;;;;19.66;59.60;94416.19;5027267;28;20245;-70
2022/05/14 07:41:12;;;;;;;7.32;3.55;;;;;;;20.02;57.91;94422.03;5025894;28;20222;-70
2022/05/14 07:44:00;;;;;;;8.23;3.33;;;;;;;19.62;59.34;94418.88;5012590;28;20604;-71
2022/05/14 07:46:47;;;;;;;5.68;2.83;;;;;;;20.43;54.16;94416.75;5003378;28;20359;-71
2022/05/14 07:49:32;;;;;;;6.72;2.70;;;;;;;21.11;54.65;94414.53;5028122;28;20750;-71
2022/05/14 07:52:17;;;;;;;4.85;2.70;;;;;;;21.25;51.38;94415.84;5024321;28;21022;-71
2022/05/14 07:55:02;;;;;;;6.88;2.88;;;;;;;21.89;49.42;94408.28;5022630;28;20228;-71
2022/05/14 07:57:47;;;;;;;6.63;2.75;;;;;;;21.94;49.37;94409.91;5018698;28;20202;-71
2022/05/14 08:00:32;;;;;;;6.88;2.97;;;;;;;21.24;48.82;94410.78;5024904;28;20229;-71
2022/05/14 08:03:17;;;;;;;8.77;2.90;;;;;;;20.45;51.12;94402.59;5029702;28;20222;-71
2022/05/14 08:06:01;;;;;;;4.32;2.67;;;;;;;22.12;47.27;94401.28;5022849;28;21047;-71
2022/05/14 08:08:45;;;;;;;7.00;2.17;;;;;;;22.93;44.81;94410.53;5019408;28;20194;-71
2022/05/14 08:11:30;;;;;;;6.10;2.40;;;;;;;24.51;38.71;94412.44;5030207;28;20190;-71
2022/05/14 08:14:14;;;;;;;4.50;2.17;;;;;;;23.16;41.62;94419.84;4994511;28;20250;-71
2022/05/14 08:16:59;;;;;;;3.13;1.90;;;;;;;23.49;39.61;94416.63;5028689;28;20249;-71
2022/05/14 08:19:43;;;;;;;5.85;2.35;;;;;;;23.61;39.24;94411.28;5012759;28;20218;-72
2022/05/14 08:25:30;;;;;;;5.15;3.33;;;;;;;23.54;44.45;94412.50;5019608;28;20245;-71
2022/05/14 08:28:15;;;;;;;7.28;2.45;;;;;;;22.48;42.48;94413.25;5025514;28;20237;-70
2022/05/14 08:31:00;;;;;;;4.00;2.20;;;;;;;22.40;45.01;94415.84;5026659;28;20207;-71
2022/05/14 08:33:44;;;;;;;6.85;2.42;;;;;;;23.16;39.84;94419.84;5020531;28;20209;-71
2022/05/14 08:36:30;;;;;;;8.70;3.15;;;;;;;22.61;41.51;94400.84;5006330;28;20281;-71
2022/05/14 08:39:15;;;;;;;4.00;2.20;;;;;;;22.93;41.34;94421.97;5024515;28;20671;-72
2022/05/14 08:42:00;;;;;;;7.07;2.28;;;;;;;23.29;41.37;94410.25;5008577;28;20406;-72
2022/05/14 08:44:46;;;;;;;4.30;2.17;;;;;;;22.73;42.82;94415.56;5022277;28;20225;-71
2022/05/14 08:47:37;;;;;;;7.53;2.72;;;;;;;24.31;41.13;94423.34;5030200;28;20718;-71
2022/05/14 08:50:26;;;;;;;8.75;3.50;;;;;;;22.68;48.50;94413.97;5027093;28;20199;-71
2022/05/14 08:53:13;;;;;;;6.65;3.63;;;;;;;22.94;46.17;94403.44;5010248;28;20222;-71
2022/05/14 08:56:19;;;;;;;7.18;3.15;;;;;;;22.22;49.15;94406.66;5012253;28;20598;-71
2022/05/14 08:59:25;;;;;;;7.50;3.40;;;;;;;22.46;45.84;94393.94;4994683;28;20201;-70
2022/05/14 09:02:12;;;;;;;7.65;3.38;;;;;;;22.80;47.55;94391.53;5025863;28;20225;-71
2022/05/14 09:05:07;;;;;;;5.32;2.60;;;;;;;23.30;44.50;94395.28;5007792;28;20534;-71
2022/05/14 09:07:51;;;;;;;6.95;2.65;;;;;;;22.33;44.06;94397.03;5004074;28;20265;-70
2022/05/14 09:10:40;;;;;;;6.13;2.83;;;;;;;21.35;46.40;94389.88;5008000;28;20687;-72
2022/05/14 09:13:25;;;;;;;5.70;3.17;;;;;;;20.81;52.78;94394.09;5026768;28;20632;-71
2022/05/14 09:16:21;;;;;;;7.13;3.03;;;;;;;21.95;50.16;94399.22;5014688;28;20578;-72
2022/05/14 09:19:20;;;;;;;7.65;2.97;;;;;;;22.30;47.35;94399.09;5014762;28;20285;-72
2022/05/14 09:22:20;;;;;;;6.35;2.50;;;;;;;22.71;47.01;94404.06;5003195;28;20282;-72
2022/05/14 09:25:04;;;;;;;5.85;2.65;;;;;;;24.32;41.76;94401.88;5021871;28;20336;-71
2022/05/14 09:28:00;;;;;;;8.60;3.05;;;;;;;24.24;40.74;94404.53;5005509;28;20253;-71
2022/05/14 09:30:53;;;;;;;5.43;2.90;;;;;;;25.49;37.99;94400.56;5013280;28;20205;-71
2022/05/14 09:33:41;;;;;;;7.25;2.60;;;;;;;24.40;42.53;94415.69;5022971;28;21139;-71
2022/05/14 09:36:28;;;;;;;4.25;2.20;;;;;;;24.97;40.11;94406.47;5010673;28;20241;-71
2022/05/14 09:39:17;;;;;;;4.38;2.10;;;;;;;24.99;39.14;94403.66;5005498;28;20202;-71
2022/05/14 09:42:01;;;;;;;8.75;2.78;;;;;;;25.89;36.16;94400.72;5011896;28;20280;-71
2022/05/14 09:44:52;;;;;;;3.38;2.10;;;;;;;24.39;43.06;94400.66;5030045;28;20532;-71
2022/05/14 09:47:36;;;;;;;5.90;2.42;;;;;;;25.19;37.36;94401.28;5020929;28;20195;-70
2022/05/14 09:50:28;;;;;;;6.57;2.25;;;;;;;25.37;38.42;94390.22;5005358;28;20206;-71
2022/05/14 09:53:12;;;;;;;4.45;2.00;;;;;;;25.89;37.52;94401.47;5007451;28;20198;-71
2022/05/14 09:56:15;;;;;;;3.92;2.00;;;;;;;25.24;38.58;94393.53;5011409;28;20249;-70
2022/05/14 09:59:10;;;;;;;6.25;2.10;;;;;;;25.43;36.73;94391.81;5025840;28;20291;-70
2022/05/14 10:02:01;;;;;;;5.38;2.28;;;;;;;26.41;35.58;94392.50;5028452;28;20256;-70
2022/05/14 10:04:55;;;;;;;5.82;2.15;;;;;;;26.63;35.35;94400.78;5017211;28;20199;-71
2022/05/14 10:07:42;;;;;;;6.13;2.15;;;;;;;24.98;38.81;94399.34;5013902;28;20614;-71
2022/05/14 10:10:47;;;;;;;4.65;2.10;;;;;;;24.75;38.50;94398.00;5013330;28;20213;-70
2022/05/14 10:13:56;;;;;;;6.35;2.30;;;;;;;25.00;38.08;94399.38;5012782;28;20198;-70
2022/05/14 10:16:49;;;;;;;6.68;2.15;;;;;;;26.13;37.44;94395.50;4994928;28;20203;-71
2022/05/14 10:20:18;;;;;;;5.57;2.65;;;;;;;26.04;36.05;94394.63;5018286;28;20250;-71
2022/05/14 10:27:01;;;;;;;86.22;57.70;;;;;;;27.97;32.01;94384.25;5005875;28;20246;-71
2022/05/14 10:30:01;;;;;;;8.95;5.03;;;;;;;28.21;32.21;94383.88;5013499;28;20680;-69
2022/05/14 10:32:49;;;;;;;7.85;2.83;;;;;;;27.24;34.05;94382.47;5015007;28;20206;-69
2022/05/14 10:36:29;;;;;;;5.93;2.33;;;;;;;29.90;28.99;94381.09;5023439;28;20252;-71
2022/05/14 10:39:20;;;;;;;8.10;2.40;;;;;;;29.79;28.82;94379.59;5022041;28;20240;-70
2022/05/14 10:42:19;;;;;;;12.63;8.18;;;;;;;29.40;29.61;94389.41;5031613;28;20234;-70
2022/05/14 10:45:28;;;;;;;5.80;2.42;;;;;;;29.85;29.50;94376.72;5020926;28;20284;-69
2022/05/14 10:48:41;;;;;;;5.90;2.10;;;;;;;30.06;29.20;94381.19;5015664;28;20213;-70
2022/05/14 10:51:31;;;;;;;4.85;2.30;;;;;;;29.63;28.49;94379.47;4996835;28;20213;-70
2022/05/14 10:54:18;;;;;;;7.38;2.03;;;;;;;30.14;28.25;94372.56;5020110;28;20726;-70
2022/05/14 10:57:30;;;;;;;6.95;2.88;;;;;;;28.09;28.42;94378.66;4997754;28;20394;-70
2022/05/14 11:00:19;;;;;;;5.93;1.95;;;;;;;29.58;28.32;94378.00;4998363;28;20261;-70
2022/05/14 11:03:09;;;;;;;3.95;1.88;;;;;;;28.42;29.89;94365.38;5011460;28;20682;-70
2022/05/14 11:06:02;;;;;;;5.60;1.83;;;;;;;29.66;26.69;94372.28;5022318;28;20237;-70
2022/05/14 11:08:46;;;;;;;7.05;1.90;;;;;;;28.95;26.81;94365.94;5017796;28;20265;-70
2022/05/14 11:11:32;;;;;;;2.97;1.50;;;;;;;30.63;25.03;94378.53;5031525;28;20249;-70
2022/05/14 11:14:17;;;;;;;7.45;1.92;;;;;;;30.00;26.09;94374.66;5009536;28;20264;-70
2022/05/14 11:17:01;;;;;;;5.90;2.05;;;;;;;30.06;25.91;94369.63;5004001;28;20734;-69
2022/05/14 11:19:45;;;;;;;5.40;2.15;;;;;;;30.79;24.53;94369.91;5031920;28;20674;-70
2022/05/14 11:23:04;;;;;;;3.97;1.60;;;;;;;32.23;22.78;94369.84;5017720;28;20242;-69
2022/05/14 11:26:07;;;;;;;4.63;1.58;;;;;;;32.40;24.49;94353.09;5022142;28;20233;-70
2022/05/14 11:28:57;;;;;;;7.03;1.95;;;;;;;33.70;22.94;94358.78;5019337;28;20203;-70
2022/05/14 11:32:11;;;;;;;9.20;2.08;;;;;;;33.03;23.03;94362.19;5015859;28;20218;-70
2022/05/14 11:34:59;;;;;;;4.25;1.58;;;;;;;32.54;24.46;94347.94;5022601;28;20222;-70
2022/05/14 11:37:47;;;;;;;6.97;1.80;;;;;;;31.62;24.44;94346.78;5032085;28;20255;-70
2022/05/14 11:40:31;;;;;;;3.78;1.98;;;;;;;31.20;24.88;94355.50;5021696;28;20277;-70
2022/05/14 11:43:27;;;;;;;3.33;1.92;;;;;;;33.16;22.75;94346.09;5027881;28;20273;-70
2022/05/14 11:46:32;;;;;;;5.28;1.63;;;;;;;31.88;24.27;94342.38;5027586;28;20245;-70
2022/05/14 11:49:16;;;;;;;5.07;1.70;;;;;;;31.23;26.02;94342.47;5007423;28;20223;-70
2022/05/14 11:52:13;;;;;;;6.18;2.13;;;;;;;33.57;22.00;94340.72;5025485;28;20209;-70
2022/05/14 11:55:02;;;;;;;3.33;1.63;;;;;;;32.80;23.96;94340.56;5023510;28;20237;-70
2022/05/14 11:58:37;;;;;;;5.28;1.77;;;;;;;32.40;24.35;94342.22;5009039;28;20620;-70
2022/05/14 12:01:28;;;;;;;6.50;2.20;;;;;;;32.67;23.30;94339.19;4956084;28;20220;-68
2022/05/14 12:04:19;;;;;;;4.63;1.60;;;;;;;32.27;23.85;94340.84;4969616;28;20313;-69
2022/05/14 12:07:35;;;;;;;4.95;1.90;;;;;;;32.66;24.75;94326.09;5026465;28;20233;-69
2022/05/14 12:10:19;;;;;;;5.75;1.88;;;;;;;31.38;24.52;94335.22;4997520;28;20730;-69
2022/05/14 12:13:14;;;;;;;4.28;1.80;;;;;;;34.09;23.39;94336.53;5017705;28;20205;-69
2022/05/14 12:16:00;;;;;;;2.03;1.70;;;;;;;35.62;20.24;94341.66;5022920;28;20209;-69
2022/05/14 12:18:44;;;;;;;4.85;2.03;;;;;;;33.72;23.02;94326.78;5009437;28;20254;-70
2022/05/14 12:21:29;;;;;;;2.83;2.05;;;;;;;37.36;19.42;94325.69;4996151;28;20227;-70
2022/05/14 12:24:25;;;;;;;3.90;1.67;;;;;;;33.55;22.97;94319.66;5022289;28;20292;-70
2022/05/14 12:27:17;;;;;;;6.10;2.00;;;;;;;33.26;23.96;94313.38;5024788;28;20682;-70
2022/05/14 12:33:11;;;;;;;4.13;1.92;;;;;;;33.12;23.42;94317.09;5030620;28;20273;-69
2022/05/14 12:33:25;;;;;;;5.13;1.83;;;;;;;35.19;21.91;94314.69;5016451;28;20200;-69
2022/05/14 12:36:10;;;;;;;2.85;1.70;;;;;;;34.99;21.23;94303.38;5025755;28;20284;-70
2022/05/14 12:38:55;;;;;;;5.68;1.95;;;;;;;35.78;20.99;94319.56;5024368;28;20242;-69
2022/05/14 12:41:41;;;;;;;5.63;1.70;;;;;;;36.38;20.21;94308.91;5022329;28;20225;-69
2022/05/14 12:44:34;;;;;;;4.72;1.95;;;;;;;35.51;20.67;94313.44;5010186;28;20616;-70
2022/05/14 12:47:29;;;;;;;4.47;1.90;;;;;;;37.36;19.32;94301.59;5008570;28;20245;-70
2022/05/14 12:50:26;;;;;;;4.00;1.70;;;;;;;37.03;20.40;94301.66;5013725;28;20675;-70
2022/05/14 12:53:11;;;;;;;4.03;2.03;;;;;;;37.19;19.02;94301.28;5016135;28;20222;-70
2022/05/14 12:55:56;;;;;;;3.22;1.85;;;;;;;37.52;19.35;94292.41;5003356;28;20203;-70
2022/05/14 12:58:42;;;;;;;4.47;2.03;;;;;;;35.33;20.88;94285.34;5029844;28;20197;-70
2022/05/14 13:01:27;;;;;;;7.35;1.98;;;;;;;35.10;21.43;94282.06;5018529;28;20222;-70
2022/05/14 13:04:13;;;;;;;3.13;1.83;;;;;;;34.58;22.11;94274.81;5007184;28;20570;-70
2022/05/14 13:07:01;;;;;;;4.93;1.92;;;;;;;37.13;19.49;94270.00;4996438;28;20250;-70
2022/05/14 13:09:45;;;;;;;4.20;1.65;;;;;;;33.33;23.41;94267.59;5027442;28;20205;-70
2022/05/14 13:12:31;;;;;;;2.65;1.55;;;;;;;35.35;20.84;94270.03;5026419;28;20690;-70
2022/05/14 13:15:15;;;;;;;5.00;1.92;;;;;;;36.04;20.70;94255.59;5018862;28;20214;-69
2022/05/14 13:18:12;;;;;;;4.97;2.03;;;;;;;34.77;21.24;94258.56;5021957;28;20221;-69
2022/05/14 13:21:13;;;;;;;2.88;1.63;;;;;;;35.44;21.09;94263.28;4991022;28;20777;-70